sensor_id;sensor_type;location;lat;lon;timestamp;P1;durP1;ratioP1;P2;durP2;ratioP2
11921;SDS011;6021;51.182;3.160;2023-08-01T00:01:01;10.37;;;6.10;;
11921;SDS011;6021;51.182;3.160;2023-08-01T00:03:31;11.73;;;6.53;;
11921;SDS011;6021;51.182;3.160;2023-08-01T00:05:59;16.37;;;6.40;;
11921;SDS011;6021;51.182;3.160;2023-08-01T00:08:27;12.73;;;6.40;;
11921;SDS011;6021;51.182;3.160;2023-08-01T00:10:56;8.87;;;6.17;;
11921;SDS011;6021;51.182;3.160;2023-08-01T00:13:24;13.43;;;6.83;;
11921;SDS011;6021;51.182;3.160;2023-08-01T00:15:52;20.50;;;6.50;;
11921;SDS011;6021;51.182;3.160;2023-08-01T00:18:21;24.57;;;6.87;;
11921;SDS011;6021;51.182;3.160;2023-08-01T00:20:51;9.47;;;6.03;;
11921;SDS011;6021;51.182;3.160;2023-08-01T00:23:20;25.17;;;7.87;;
11921;SDS011;6021;51.182;3.160;2023-08-01T00:25:48;11.07;;;6.87;;
11921;SDS011;6021;51.182;3.160;2023-08-01T00:28:18;12.60;;;6.97;;
11921;SDS011;6021;51.182;3.160;2023-08-01T00:30:46;15.47;;;7.30;;
11921;SDS011;6021;51.182;3.160;2023-08-01T00:33:15;10.63;;;6.73;;
11921;SDS011;6021;51.182;3.160;2023-08-01T00:35:43;19.07;;;7.20;;
11921;SDS011;6021;51.182;3.160;2023-08-01T00:38:11;13.23;;;7.20;;
11921;SDS011;6021;51.182;3.160;2023-08-01T00:40:40;9.33;;;6.47;;
11921;SDS011;6021;51.182;3.160;2023-08-01T00:43:08;10.93;;;6.80;;
11921;SDS011;6021;51.182;3.160;2023-08-01T00:45:36;11.60;;;6.67;;
11921;SDS011;6021;51.182;3.160;2023-08-01T00:48:05;14.67;;;6.87;;
11921;SDS011;6021;51.182;3.160;2023-08-01T00:50:33;21.90;;;8.10;;
11921;SDS011;6021;51.182;3.160;2023-08-01T00:53:01;13.20;;;7.03;;
11921;SDS011;6021;51.182;3.160;2023-08-01T00:55:30;11.97;;;6.93;;
11921;SDS011;6021;51.182;3.160;2023-08-01T00:57:59;21.77;;;8.47;;
11921;SDS011;6021;51.182;3.160;2023-08-01T01:00:28;29.73;;;9.30;;
11921;SDS011;6021;51.182;3.160;2023-08-01T01:02:57;13.17;;;7.70;;
11921;SDS011;6021;51.182;3.160;2023-08-01T01:05:25;13.53;;;8.97;;
11921;SDS011;6021;51.182;3.160;2023-08-01T01:07:57;18.47;;;9.13;;
11921;SDS011;6021;51.182;3.160;2023-08-01T01:10:25;19.07;;;9.63;;
11921;SDS011;6021;51.182;3.160;2023-08-01T01:12:53;17.23;;;9.83;;
11921;SDS011;6021;51.182;3.160;2023-08-01T01:15:22;12.33;;;8.90;;
11921;SDS011;6021;51.182;3.160;2023-08-01T01:17:50;21.93;;;9.77;;
11921;SDS011;6021;51.182;3.160;2023-08-01T01:20:20;34.47;;;10.23;;
11921;SDS011;6021;51.182;3.160;2023-08-01T01:22:55;22.17;;;8.83;;
11921;SDS011;6021;51.182;3.160;2023-08-01T01:25:21;13.33;;;8.27;;
11921;SDS011;6021;51.182;3.160;2023-08-01T01:27:51;26.50;;;9.37;;
11921;SDS011;6021;51.182;3.160;2023-08-01T01:30:21;11.57;;;7.80;;
11921;SDS011;6021;51.182;3.160;2023-08-01T01:32:50;29.47;;;8.97;;
11921;SDS011;6021;51.182;3.160;2023-08-01T01:35:19;16.13;;;8.60;;
11921;SDS011;6021;51.182;3.160;2023-08-01T01:37:47;15.60;;;8.50;;
11921;SDS011;6021;51.182;3.160;2023-08-01T01:40:16;15.07;;;8.57;;
11921;SDS011;6021;51.182;3.160;2023-08-01T01:42:44;17.03;;;8.83;;
11921;SDS011;6021;51.182;3.160;2023-08-01T01:45:14;20.30;;;9.00;;
11921;SDS011;6021;51.182;3.160;2023-08-01T01:47:43;13.37;;;8.60;;
11921;SDS011;6021;51.182;3.160;2023-08-01T01:50:11;14.50;;;8.97;;
11921;SDS011;6021;51.182;3.160;2023-08-01T01:52:39;25.13;;;9.63;;
11921;SDS011;6021;51.182;3.160;2023-08-01T01:55:08;24.77;;;9.20;;
11921;SDS011;6021;51.182;3.160;2023-08-01T01:57:36;19.57;;;9.70;;
11921;SDS011;6021;51.182;3.160;2023-08-01T02:00:05;27.73;;;9.33;;
11921;SDS011;6021;51.182;3.160;2023-08-01T02:02:35;13.13;;;8.13;;
11921;SDS011;6021;51.182;3.160;2023-08-01T02:05:04;52.20;;;10.40;;
11921;SDS011;6021;51.182;3.160;2023-08-01T02:07:33;12.37;;;8.30;;
11921;SDS011;6021;51.182;3.160;2023-08-01T02:10:01;21.30;;;8.70;;
11921;SDS011;6021;51.182;3.160;2023-08-01T02:12:30;10.43;;;7.93;;
11921;SDS011;6021;51.182;3.160;2023-08-01T02:14:58;21.07;;;8.33;;
11921;SDS011;6021;51.182;3.160;2023-08-01T02:17:26;11.27;;;7.17;;
11921;SDS011;6021;51.182;3.160;2023-08-01T02:19:55;21.47;;;8.93;;
11921;SDS011;6021;51.182;3.160;2023-08-01T02:22:24;13.13;;;7.43;;
11921;SDS011;6021;51.182;3.160;2023-08-01T02:24:53;13.50;;;8.30;;
11921;SDS011;6021;51.182;3.160;2023-08-01T02:27:22;13.20;;;8.20;;
11921;SDS011;6021;51.182;3.160;2023-08-01T02:29:50;16.03;;;8.57;;
11921;SDS011;6021;51.182;3.160;2023-08-01T02:32:18;24.53;;;8.93;;
11921;SDS011;6021;51.182;3.160;2023-08-01T02:34:47;29.17;;;9.30;;
11921;SDS011;6021;51.182;3.160;2023-08-01T02:37:15;15.13;;;8.60;;
11921;SDS011;6021;51.182;3.160;2023-08-01T02:39:43;23.33;;;9.43;;
11921;SDS011;6021;51.182;3.160;2023-08-01T02:42:12;12.20;;;7.63;;
11921;SDS011;6021;51.182;3.160;2023-08-01T02:44:40;34.37;;;9.97;;
11921;SDS011;6021;51.182;3.160;2023-08-01T02:47:09;22.90;;;8.87;;
11921;SDS011;6021;51.182;3.160;2023-08-01T02:49:37;15.10;;;8.90;;
11921;SDS011;6021;51.182;3.160;2023-08-01T02:52:05;19.17;;;8.90;;
11921;SDS011;6021;51.182;3.160;2023-08-01T02:54:34;21.33;;;8.80;;
11921;SDS011;6021;51.182;3.160;2023-08-01T02:57:02;15.33;;;8.23;;
11921;SDS011;6021;51.182;3.160;2023-08-01T02:59:31;13.67;;;8.00;;
11921;SDS011;6021;51.182;3.160;2023-08-01T03:01:59;17.70;;;8.90;;
11921;SDS011;6021;51.182;3.160;2023-08-01T03:04:27;20.43;;;8.73;;
11921;SDS011;6021;51.182;3.160;2023-08-01T03:06:56;22.13;;;7.63;;
11921;SDS011;6021;51.182;3.160;2023-08-01T03:09:24;17.77;;;7.87;;
11921;SDS011;6021;51.182;3.160;2023-08-01T03:11:53;18.03;;;7.80;;
11921;SDS011;6021;51.182;3.160;2023-08-01T03:14:21;20.07;;;7.07;;
11921;SDS011;6021;51.182;3.160;2023-08-01T03:16:49;21.13;;;7.80;;
11921;SDS011;6021;51.182;3.160;2023-08-01T03:19:18;15.67;;;8.23;;
11921;SDS011;6021;51.182;3.160;2023-08-01T03:21:46;15.07;;;8.30;;
11921;SDS011;6021;51.182;3.160;2023-08-01T03:24:14;29.97;;;8.50;;
11921;SDS011;6021;51.182;3.160;2023-08-01T03:26:43;14.20;;;7.57;;
11921;SDS011;6021;51.182;3.160;2023-08-01T03:29:11;19.50;;;8.93;;
11921;SDS011;6021;51.182;3.160;2023-08-01T03:31:39;10.57;;;7.50;;
11921;SDS011;6021;51.182;3.160;2023-08-01T03:36:57;11.17;;;7.60;;
11921;SDS011;6021;51.182;3.160;2023-08-01T03:39:26;13.67;;;8.13;;
11921;SDS011;6021;51.182;3.160;2023-08-01T03:41:54;16.80;;;7.50;;
11921;SDS011;6021;51.182;3.160;2023-08-01T03:44:23;13.53;;;7.83;;
11921;SDS011;6021;51.182;3.160;2023-08-01T03:46:51;11.63;;;7.03;;
11921;SDS011;6021;51.182;3.160;2023-08-01T03:49:19;12.20;;;6.87;;
11921;SDS011;6021;51.182;3.160;2023-08-01T03:51:48;22.37;;;8.10;;
11921;SDS011;6021;51.182;3.160;2023-08-01T03:54:17;14.43;;;7.37;;
11921;SDS011;6021;51.182;3.160;2023-08-01T03:56:45;17.93;;;7.73;;
11921;SDS011;6021;51.182;3.160;2023-08-01T03:59:14;19.43;;;7.93;;
11921;SDS011;6021;51.182;3.160;2023-08-01T04:01:43;26.00;;;8.00;;
11921;SDS011;6021;51.182;3.160;2023-08-01T04:04:11;10.20;;;6.83;;
11921;SDS011;6021;51.182;3.160;2023-08-01T04:06:39;22.63;;;7.63;;
11921;SDS011;6021;51.182;3.160;2023-08-01T04:09:08;11.80;;;7.07;;
11921;SDS011;6021;51.182;3.160;2023-08-01T04:11:36;21.37;;;8.00;;
11921;SDS011;6021;51.182;3.160;2023-08-01T04:14:04;13.13;;;7.13;;
11921;SDS011;6021;51.182;3.160;2023-08-01T04:16:33;20.00;;;8.37;;
11921;SDS011;6021;51.182;3.160;2023-08-01T04:19:01;21.50;;;7.93;;
11921;SDS011;6021;51.182;3.160;2023-08-01T04:21:30;14.07;;;7.60;;
11921;SDS011;6021;51.182;3.160;2023-08-01T04:23:58;18.87;;;7.97;;
11921;SDS011;6021;51.182;3.160;2023-08-01T04:26:26;19.30;;;8.33;;
11921;SDS011;6021;51.182;3.160;2023-08-01T04:28:55;15.63;;;7.17;;
11921;SDS011;6021;51.182;3.160;2023-08-01T04:31:23;9.07;;;7.00;;
11921;SDS011;6021;51.182;3.160;2023-08-01T04:33:51;25.83;;;8.20;;
11921;SDS011;6021;51.182;3.160;2023-08-01T04:36:20;14.77;;;7.50;;
11921;SDS011;6021;51.182;3.160;2023-08-01T04:38:48;13.80;;;7.20;;
11921;SDS011;6021;51.182;3.160;2023-08-01T04:41:17;13.53;;;7.30;;
11921;SDS011;6021;51.182;3.160;2023-08-01T04:43:45;13.43;;;7.03;;
11921;SDS011;6021;51.182;3.160;2023-08-01T04:46:13;13.90;;;7.60;;
11921;SDS011;6021;51.182;3.160;2023-08-01T04:48:42;14.97;;;6.80;;
11921;SDS011;6021;51.182;3.160;2023-08-01T04:51:10;21.00;;;7.17;;
11921;SDS011;6021;51.182;3.160;2023-08-01T04:53:38;17.43;;;7.00;;
11921;SDS011;6021;51.182;3.160;2023-08-01T04:56:07;12.80;;;6.77;;
11921;SDS011;6021;51.182;3.160;2023-08-01T04:58:35;8.23;;;6.07;;
11921;SDS011;6021;51.182;3.160;2023-08-01T05:01:03;14.60;;;7.40;;
11921;SDS011;6021;51.182;3.160;2023-08-01T05:03:32;13.27;;;7.00;;
11921;SDS011;6021;51.182;3.160;2023-08-01T05:06:00;14.23;;;7.20;;
11921;SDS011;6021;51.182;3.160;2023-08-01T05:08:28;17.93;;;7.20;;
11921;SDS011;6021;51.182;3.160;2023-08-01T05:10:57;16.40;;;7.23;;
11921;SDS011;6021;51.182;3.160;2023-08-01T05:13:25;9.53;;;6.30;;
11921;SDS011;6021;51.182;3.160;2023-08-01T05:15:53;10.93;;;6.80;;
11921;SDS011;6021;51.182;3.160;2023-08-01T05:18:22;8.13;;;6.30;;
11921;SDS011;6021;51.182;3.160;2023-08-01T05:20:50;12.03;;;6.77;;
11921;SDS011;6021;51.182;3.160;2023-08-01T05:23:18;15.37;;;6.63;;
11921;SDS011;6021;51.182;3.160;2023-08-01T05:25:47;9.43;;;6.50;;
11921;SDS011;6021;51.182;3.160;2023-08-01T05:28:15;7.00;;;5.40;;
11921;SDS011;6021;51.182;3.160;2023-08-01T05:30:44;13.07;;;6.73;;
11921;SDS011;6021;51.182;3.160;2023-08-01T05:33:13;20.03;;;6.70;;
11921;SDS011;6021;51.182;3.160;2023-08-01T05:35:42;10.73;;;6.33;;
11921;SDS011;6021;51.182;3.160;2023-08-01T05:38:10;16.63;;;6.87;;
11921;SDS011;6021;51.182;3.160;2023-08-01T05:40:38;14.37;;;7.20;;
11921;SDS011;6021;51.182;3.160;2023-08-01T05:43:07;7.70;;;5.93;;
11921;SDS011;6021;51.182;3.160;2023-08-01T05:45:35;10.23;;;6.00;;
11921;SDS011;6021;51.182;3.160;2023-08-01T05:48:04;14.00;;;6.80;;
11921;SDS011;6021;51.182;3.160;2023-08-01T05:50:32;13.50;;;6.13;;
11921;SDS011;6021;51.182;3.160;2023-08-01T05:53:01;13.53;;;6.27;;
11921;SDS011;6021;51.182;3.160;2023-08-01T05:55:29;15.90;;;6.47;;
11921;SDS011;6021;51.182;3.160;2023-08-01T05:57:57;15.07;;;6.83;;
11921;SDS011;6021;51.182;3.160;2023-08-01T06:00:26;16.87;;;6.23;;
11921;SDS011;6021;51.182;3.160;2023-08-01T06:02:54;10.13;;;6.40;;
11921;SDS011;6021;51.182;3.160;2023-08-01T06:05:23;58.50;;;11.83;;
11921;SDS011;6021;51.182;3.160;2023-08-01T06:07:51;27.13;;;9.03;;
11921;SDS011;6021;51.182;3.160;2023-08-01T06:10:19;31.37;;;9.57;;
11921;SDS011;6021;51.182;3.160;2023-08-01T06:12:48;22.07;;;7.70;;
11921;SDS011;6021;51.182;3.160;2023-08-01T06:15:16;29.93;;;9.33;;
11921;SDS011;6021;51.182;3.160;2023-08-01T06:17:44;16.90;;;7.50;;
11921;SDS011;6021;51.182;3.160;2023-08-01T06:20:13;16.47;;;7.03;;
11921;SDS011;6021;51.182;3.160;2023-08-01T06:22:42;13.63;;;6.87;;
11921;SDS011;6021;51.182;3.160;2023-08-01T06:25:10;11.70;;;6.57;;
11921;SDS011;6021;51.182;3.160;2023-08-01T06:27:38;11.97;;;6.43;;
11921;SDS011;6021;51.182;3.160;2023-08-01T06:30:07;9.33;;;6.00;;
11921;SDS011;6021;51.182;3.160;2023-08-01T06:32:38;20.70;;;6.83;;
11921;SDS011;6021;51.182;3.160;2023-08-01T06:35:06;15.70;;;6.53;;
11921;SDS011;6021;51.182;3.160;2023-08-01T06:37:35;17.17;;;6.57;;
11921;SDS011;6021;51.182;3.160;2023-08-01T06:40:03;12.70;;;6.10;;
11921;SDS011;6021;51.182;3.160;2023-08-01T06:42:32;13.03;;;6.43;;
11921;SDS011;6021;51.182;3.160;2023-08-01T06:45:00;13.40;;;6.47;;
11921;SDS011;6021;51.182;3.160;2023-08-01T06:47:29;12.90;;;5.80;;
11921;SDS011;6021;51.182;3.160;2023-08-01T06:49:57;18.37;;;5.80;;
11921;SDS011;6021;51.182;3.160;2023-08-01T06:52:27;13.20;;;5.67;;
11921;SDS011;6021;51.182;3.160;2023-08-01T06:54:57;11.77;;;5.13;;
11921;SDS011;6021;51.182;3.160;2023-08-01T06:57:25;11.67;;;5.33;;
11921;SDS011;6021;51.182;3.160;2023-08-01T06:59:54;15.23;;;5.93;;
11921;SDS011;6021;51.182;3.160;2023-08-01T07:02:22;12.03;;;5.63;;
11921;SDS011;6021;51.182;3.160;2023-08-01T07:04:52;13.53;;;5.60;;
11921;SDS011;6021;51.182;3.160;2023-08-01T07:07:20;13.43;;;5.60;;
11921;SDS011;6021;51.182;3.160;2023-08-01T07:12:36;13.97;;;5.90;;
11921;SDS011;6021;51.182;3.160;2023-08-01T07:15:05;12.03;;;5.70;;
11921;SDS011;6021;51.182;3.160;2023-08-01T07:17:34;11.40;;;5.40;;
11921;SDS011;6021;51.182;3.160;2023-08-01T07:20:03;14.60;;;5.60;;
11921;SDS011;6021;51.182;3.160;2023-08-01T07:22:31;14.80;;;5.70;;
11921;SDS011;6021;51.182;3.160;2023-08-01T07:25:00;12.60;;;5.73;;
11921;SDS011;6021;51.182;3.160;2023-08-01T07:27:28;13.77;;;5.47;;
11921;SDS011;6021;51.182;3.160;2023-08-01T07:29:57;12.17;;;5.37;;
11921;SDS011;6021;51.182;3.160;2023-08-01T07:32:25;15.33;;;5.30;;
11921;SDS011;6021;51.182;3.160;2023-08-01T07:34:53;14.87;;;5.37;;
11921;SDS011;6021;51.182;3.160;2023-08-01T07:37:22;12.80;;;5.47;;
11921;SDS011;6021;51.182;3.160;2023-08-01T07:39:51;11.70;;;5.20;;
11921;SDS011;6021;51.182;3.160;2023-08-01T07:42:19;11.60;;;4.83;;
11921;SDS011;6021;51.182;3.160;2023-08-01T07:44:47;12.33;;;4.60;;
11921;SDS011;6021;51.182;3.160;2023-08-01T07:47:16;10.40;;;4.80;;
11921;SDS011;6021;51.182;3.160;2023-08-01T07:49:44;8.63;;;4.27;;
11921;SDS011;6021;51.182;3.160;2023-08-01T07:52:13;9.20;;;4.80;;
11921;SDS011;6021;51.182;3.160;2023-08-01T07:54:42;11.40;;;4.77;;
11921;SDS011;6021;51.182;3.160;2023-08-01T07:57:11;10.53;;;4.37;;
11921;SDS011;6021;51.182;3.160;2023-08-01T07:59:39;11.70;;;5.10;;
11921;SDS011;6021;51.182;3.160;2023-08-01T08:02:08;12.50;;;4.73;;
11921;SDS011;6021;51.182;3.160;2023-08-01T08:04:36;12.23;;;4.80;;
11921;SDS011;6021;51.182;3.160;2023-08-01T08:07:05;10.03;;;4.83;;
11921;SDS011;6021;51.182;3.160;2023-08-01T08:09:33;11.97;;;5.00;;
11921;SDS011;6021;51.182;3.160;2023-08-01T08:12:01;10.17;;;4.70;;
11921;SDS011;6021;51.182;3.160;2023-08-01T08:14:30;10.93;;;4.90;;
11921;SDS011;6021;51.182;3.160;2023-08-01T08:16:58;12.17;;;4.73;;
11921;SDS011;6021;51.182;3.160;2023-08-01T08:19:27;11.00;;;4.63;;
11921;SDS011;6021;51.182;3.160;2023-08-01T08:21:55;11.73;;;4.97;;
11921;SDS011;6021;51.182;3.160;2023-08-01T08:24:24;9.37;;;4.53;;
11921;SDS011;6021;51.182;3.160;2023-08-01T08:26:52;11.07;;;4.50;;
11921;SDS011;6021;51.182;3.160;2023-08-01T08:29:20;8.47;;;4.23;;
11921;SDS011;6021;51.182;3.160;2023-08-01T08:31:49;9.83;;;4.37;;
11921;SDS011;6021;51.182;3.160;2023-08-01T08:34:18;9.90;;;4.13;;
11921;SDS011;6021;51.182;3.160;2023-08-01T08:36:46;9.37;;;4.03;;
11921;SDS011;6021;51.182;3.160;2023-08-01T08:39:17;9.10;;;3.93;;
11921;SDS011;6021;51.182;3.160;2023-08-01T08:41:47;13.93;;;4.37;;
11921;SDS011;6021;51.182;3.160;2023-08-01T08:44:16;6.80;;;3.87;;
11921;SDS011;6021;51.182;3.160;2023-08-01T08:46:58;12.17;;;4.00;;
11921;SDS011;6021;51.182;3.160;2023-08-01T08:49:21;10.83;;;3.93;;
11921;SDS011;6021;51.182;3.160;2023-08-01T08:51:51;8.33;;;3.87;;
11921;SDS011;6021;51.182;3.160;2023-08-01T08:54:19;10.30;;;3.73;;
11921;SDS011;6021;51.182;3.160;2023-08-01T08:56:50;10.70;;;3.70;;
11921;SDS011;6021;51.182;3.160;2023-08-01T08:59:20;10.80;;;4.30;;
11921;SDS011;6021;51.182;3.160;2023-08-01T09:01:48;9.17;;;3.77;;
11921;SDS011;6021;51.182;3.160;2023-08-01T09:04:17;7.77;;;3.43;;
11921;SDS011;6021;51.182;3.160;2023-08-01T09:06:45;9.57;;;3.80;;
11921;SDS011;6021;51.182;3.160;2023-08-01T09:09:15;11.07;;;4.03;;
11921;SDS011;6021;51.182;3.160;2023-08-01T09:11:51;11.97;;;4.03;;
11921;SDS011;6021;51.182;3.160;2023-08-01T09:14:22;8.40;;;3.63;;
11921;SDS011;6021;51.182;3.160;2023-08-01T09:16:50;10.43;;;3.80;;
11921;SDS011;6021;51.182;3.160;2023-08-01T09:19:19;9.80;;;3.90;;
11921;SDS011;6021;51.182;3.160;2023-08-01T09:21:48;7.80;;;3.90;;
11921;SDS011;6021;51.182;3.160;2023-08-01T09:24:18;9.50;;;3.80;;
11921;SDS011;6021;51.182;3.160;2023-08-01T09:26:49;13.30;;;3.80;;
11921;SDS011;6021;51.182;3.160;2023-08-01T09:29:17;6.47;;;3.20;;
11921;SDS011;6021;51.182;3.160;2023-08-01T09:31:47;7.73;;;3.60;;
11921;SDS011;6021;51.182;3.160;2023-08-01T09:34:20;8.03;;;3.63;;
11921;SDS011;6021;51.182;3.160;2023-08-01T09:36:50;9.87;;;3.77;;
11921;SDS011;6021;51.182;3.160;2023-08-01T09:39:20;10.77;;;3.60;;
11921;SDS011;6021;51.182;3.160;2023-08-01T09:41:58;9.90;;;3.60;;
11921;SDS011;6021;51.182;3.160;2023-08-01T09:44:28;9.90;;;3.40;;
11921;SDS011;6021;51.182;3.160;2023-08-01T09:47:01;6.13;;;3.07;;
11921;SDS011;6021;51.182;3.160;2023-08-01T09:49:31;8.33;;;3.43;;
11921;SDS011;6021;51.182;3.160;2023-08-01T09:52:00;10.57;;;3.63;;
11921;SDS011;6021;51.182;3.160;2023-08-01T09:54:29;8.17;;;3.60;;
11921;SDS011;6021;51.182;3.160;2023-08-01T09:56:57;10.33;;;3.57;;
11921;SDS011;6021;51.182;3.160;2023-08-01T09:59:27;9.17;;;3.37;;
11921;SDS011;6021;51.182;3.160;2023-08-01T10:01:57;7.77;;;3.57;;
11921;SDS011;6021;51.182;3.160;2023-08-01T10:04:27;9.17;;;3.33;;
11921;SDS011;6021;51.182;3.160;2023-08-01T10:06:58;7.87;;;3.20;;
11921;SDS011;6021;51.182;3.160;2023-08-01T10:09:27;8.20;;;3.40;;
11921;SDS011;6021;51.182;3.160;2023-08-01T10:11:58;9.97;;;3.60;;
11921;SDS011;6021;51.182;3.160;2023-08-01T10:14:26;9.37;;;3.53;;
11921;SDS011;6021;51.182;3.160;2023-08-01T10:16:55;6.47;;;3.10;;
11921;SDS011;6021;51.182;3.160;2023-08-01T10:19:24;6.93;;;3.13;;
11921;SDS011;6021;51.182;3.160;2023-08-01T10:21:53;6.63;;;3.27;;
11921;SDS011;6021;51.182;3.160;2023-08-01T10:24:23;8.70;;;3.60;;
11921;SDS011;6021;51.182;3.160;2023-08-01T10:26:53;8.93;;;2.77;;
11921;SDS011;6021;51.182;3.160;2023-08-01T10:29:21;6.50;;;2.83;;
11921;SDS011;6021;51.182;3.160;2023-08-01T10:31:52;7.37;;;2.97;;
11921;SDS011;6021;51.182;3.160;2023-08-01T10:34:21;5.80;;;2.70;;
11921;SDS011;6021;51.182;3.160;2023-08-01T10:36:55;5.30;;;2.57;;
11921;SDS011;6021;51.182;3.160;2023-08-01T10:39:25;6.73;;;3.00;;
11921;SDS011;6021;51.182;3.160;2023-08-01T10:42:01;5.90;;;2.80;;
11921;SDS011;6021;51.182;3.160;2023-08-01T10:44:31;7.70;;;3.00;;
11921;SDS011;6021;51.182;3.160;2023-08-01T10:47:02;7.87;;;3.17;;
11921;SDS011;6021;51.182;3.160;2023-08-01T10:49:33;9.80;;;3.23;;
11921;SDS011;6021;51.182;3.160;2023-08-01T10:52:26;8.57;;;2.80;;
11921;SDS011;6021;51.182;3.160;2023-08-01T10:54:46;7.97;;;3.10;;
11921;SDS011;6021;51.182;3.160;2023-08-01T10:57:16;6.27;;;2.90;;
11921;SDS011;6021;51.182;3.160;2023-08-01T10:59:45;7.67;;;2.60;;
11921;SDS011;6021;51.182;3.160;2023-08-01T11:02:19;5.17;;;2.30;;
11921;SDS011;6021;51.182;3.160;2023-08-01T11:07:38;5.97;;;2.70;;
11921;SDS011;6021;51.182;3.160;2023-08-01T11:10:11;6.17;;;2.40;;
11921;SDS011;6021;51.182;3.160;2023-08-01T11:12:43;7.30;;;2.60;;
11921;SDS011;6021;51.182;3.160;2023-08-01T11:15:11;6.73;;;2.60;;
11921;SDS011;6021;51.182;3.160;2023-08-01T11:17:46;7.13;;;2.60;;
11921;SDS011;6021;51.182;3.160;2023-08-01T11:20:18;5.57;;;2.33;;
11921;SDS011;6021;51.182;3.160;2023-08-01T11:22:58;4.73;;;2.60;;
11921;SDS011;6021;51.182;3.160;2023-08-01T11:25:31;4.73;;;2.33;;
11921;SDS011;6021;51.182;3.160;2023-08-01T11:28:08;5.90;;;2.47;;
11921;SDS011;6021;51.182;3.160;2023-08-01T11:30:38;5.90;;;2.40;;
11921;SDS011;6021;51.182;3.160;2023-08-01T11:33:17;5.00;;;2.30;;
11921;SDS011;6021;51.182;3.160;2023-08-01T11:35:53;6.70;;;2.33;;
11921;SDS011;6021;51.182;3.160;2023-08-01T11:38:29;5.77;;;2.43;;
11921;SDS011;6021;51.182;3.160;2023-08-01T11:41:00;7.37;;;2.60;;
11921;SDS011;6021;51.182;3.160;2023-08-01T11:43:42;6.30;;;2.53;;
11921;SDS011;6021;51.182;3.160;2023-08-01T11:46:11;5.27;;;2.40;;
11921;SDS011;6021;51.182;3.160;2023-08-01T11:48:44;6.33;;;2.70;;
11921;SDS011;6021;51.182;3.160;2023-08-01T11:51:19;5.63;;;2.50;;
11921;SDS011;6021;51.182;3.160;2023-08-01T11:53:57;4.67;;;2.20;;
11921;SDS011;6021;51.182;3.160;2023-08-01T11:56:30;4.03;;;2.10;;
11921;SDS011;6021;51.182;3.160;2023-08-01T11:58:59;3.63;;;2.20;;
11921;SDS011;6021;51.182;3.160;2023-08-01T12:01:29;6.07;;;2.57;;
11921;SDS011;6021;51.182;3.160;2023-08-01T12:03:57;5.43;;;2.27;;
11921;SDS011;6021;51.182;3.160;2023-08-01T12:06:30;5.00;;;2.40;;
11921;SDS011;6021;51.182;3.160;2023-08-01T12:09:07;5.63;;;2.40;;
11921;SDS011;6021;51.182;3.160;2023-08-01T12:11:34;6.33;;;2.30;;
11921;SDS011;6021;51.182;3.160;2023-08-01T12:14:07;7.20;;;2.67;;
11921;SDS011;6021;51.182;3.160;2023-08-01T12:16:42;3.97;;;2.40;;
11921;SDS011;6021;51.182;3.160;2023-08-01T12:19:17;7.53;;;2.30;;
11921;SDS011;6021;51.182;3.160;2023-08-01T12:21:46;5.57;;;2.37;;
11921;SDS011;6021;51.182;3.160;2023-08-01T12:24:15;7.53;;;2.30;;
11921;SDS011;6021;51.182;3.160;2023-08-01T12:26:44;31.13;;;5.67;;
11921;SDS011;6021;51.182;3.160;2023-08-01T12:29:12;42.70;;;7.10;;
11921;SDS011;6021;51.182;3.160;2023-08-01T12:31:40;4.90;;;2.30;;
11921;SDS011;6021;51.182;3.160;2023-08-01T12:34:09;7.97;;;2.40;;
11921;SDS011;6021;51.182;3.160;2023-08-01T12:36:37;6.63;;;2.50;;
11921;SDS011;6021;51.182;3.160;2023-08-01T12:39:06;5.77;;;2.40;;
11921;SDS011;6021;51.182;3.160;2023-08-01T12:41:36;5.53;;;2.30;;
11921;SDS011;6021;51.182;3.160;2023-08-01T12:44:05;3.73;;;2.30;;
11921;SDS011;6021;51.182;3.160;2023-08-01T12:46:33;4.63;;;2.17;;
11921;SDS011;6021;51.182;3.160;2023-08-01T12:49:01;4.60;;;2.37;;
11921;SDS011;6021;51.182;3.160;2023-08-01T12:51:30;3.13;;;1.87;;
11921;SDS011;6021;51.182;3.160;2023-08-01T12:53:58;5.43;;;2.10;;
11921;SDS011;6021;51.182;3.160;2023-08-01T12:56:27;5.63;;;1.90;;
11921;SDS011;6021;51.182;3.160;2023-08-01T12:58:55;3.10;;;1.80;;
11921;SDS011;6021;51.182;3.160;2023-08-01T13:01:24;5.57;;;1.90;;
11921;SDS011;6021;51.182;3.160;2023-08-01T13:03:52;5.50;;;1.97;;
11921;SDS011;6021;51.182;3.160;2023-08-01T13:06:20;4.97;;;1.83;;
11921;SDS011;6021;51.182;3.160;2023-08-01T13:08:49;3.07;;;1.80;;
11921;SDS011;6021;51.182;3.160;2023-08-01T13:11:17;4.93;;;2.03;;
11921;SDS011;6021;51.182;3.160;2023-08-01T13:13:46;5.93;;;2.23;;
11921;SDS011;6021;51.182;3.160;2023-08-01T13:16:14;6.10;;;2.27;;
11921;SDS011;6021;51.182;3.160;2023-08-01T13:18:42;3.90;;;2.17;;
11921;SDS011;6021;51.182;3.160;2023-08-01T13:21:12;4.83;;;1.83;;
11921;SDS011;6021;51.182;3.160;2023-08-01T13:23:41;4.20;;;2.17;;
11921;SDS011;6021;51.182;3.160;2023-08-01T13:26:09;5.90;;;2.30;;
11921;SDS011;6021;51.182;3.160;2023-08-01T13:28:38;4.13;;;1.70;;
11921;SDS011;6021;51.182;3.160;2023-08-01T13:31:06;4.20;;;2.30;;
11921;SDS011;6021;51.182;3.160;2023-08-01T13:33:34;4.17;;;2.00;;
11921;SDS011;6021;51.182;3.160;2023-08-01T13:36:03;6.17;;;2.20;;
11921;SDS011;6021;51.182;3.160;2023-08-01T13:38:31;6.37;;;2.07;;
11921;SDS011;6021;51.182;3.160;2023-08-01T13:41:00;5.67;;;2.13;;
11921;SDS011;6021;51.182;3.160;2023-08-01T13:43:28;5.03;;;1.77;;
11921;SDS011;6021;51.182;3.160;2023-08-01T13:45:57;6.10;;;2.20;;
11921;SDS011;6021;51.182;3.160;2023-08-01T13:48:25;4.10;;;2.07;;
11921;SDS011;6021;51.182;3.160;2023-08-01T13:50:56;4.90;;;2.30;;
11921;SDS011;6021;51.182;3.160;2023-08-01T13:53:25;3.90;;;2.00;;
11921;SDS011;6021;51.182;3.160;2023-08-01T13:55:55;4.50;;;1.90;;
11921;SDS011;6021;51.182;3.160;2023-08-01T13:58:23;5.83;;;2.20;;
11921;SDS011;6021;51.182;3.160;2023-08-01T14:00:52;6.53;;;2.00;;
11921;SDS011;6021;51.182;3.160;2023-08-01T14:03:20;3.10;;;2.00;;
11921;SDS011;6021;51.182;3.160;2023-08-01T14:05:48;4.30;;;2.03;;
11921;SDS011;6021;51.182;3.160;2023-08-01T14:08:17;4.10;;;2.13;;
11921;SDS011;6021;51.182;3.160;2023-08-01T14:10:45;4.47;;;2.00;;
11921;SDS011;6021;51.182;3.160;2023-08-01T14:13:13;4.07;;;1.87;;
11921;SDS011;6021;51.182;3.160;2023-08-01T14:15:42;4.50;;;2.03;;
11921;SDS011;6021;51.182;3.160;2023-08-01T14:18:10;5.50;;;2.27;;
11921;SDS011;6021;51.182;3.160;2023-08-01T14:20:38;4.03;;;2.20;;
11921;SDS011;6021;51.182;3.160;2023-08-01T14:23:07;5.03;;;2.07;;
11921;SDS011;6021;51.182;3.160;2023-08-01T14:25:35;5.73;;;2.07;;
11921;SDS011;6021;51.182;3.160;2023-08-01T14:28:04;4.47;;;2.00;;
11921;SDS011;6021;51.182;3.160;2023-08-01T14:30:32;5.00;;;2.17;;
11921;SDS011;6021;51.182;3.160;2023-08-01T14:33:04;6.00;;;2.00;;
11921;SDS011;6021;51.182;3.160;2023-08-01T14:35:35;3.90;;;1.90;;
11921;SDS011;6021;51.182;3.160;2023-08-01T14:38:04;3.83;;;1.83;;
11921;SDS011;6021;51.182;3.160;2023-08-01T14:40:32;5.73;;;2.30;;
11921;SDS011;6021;51.182;3.160;2023-08-01T14:43:02;6.03;;;2.40;;
11921;SDS011;6021;51.182;3.160;2023-08-01T14:45:30;6.57;;;2.17;;
11921;SDS011;6021;51.182;3.160;2023-08-01T14:47:59;5.03;;;2.30;;
11921;SDS011;6021;51.182;3.160;2023-08-01T14:50:28;5.13;;;2.03;;
11921;SDS011;6021;51.182;3.160;2023-08-01T14:52:56;5.13;;;2.13;;
11921;SDS011;6021;51.182;3.160;2023-08-01T14:55:24;4.73;;;2.20;;
11921;SDS011;6021;51.182;3.160;2023-08-01T14:57:53;6.50;;;2.50;;
11921;SDS011;6021;51.182;3.160;2023-08-01T15:00:21;7.40;;;2.40;;
11921;SDS011;6021;51.182;3.160;2023-08-01T15:02:50;7.40;;;2.30;;
11921;SDS011;6021;51.182;3.160;2023-08-01T15:05:19;6.57;;;2.30;;
11921;SDS011;6021;51.182;3.160;2023-08-01T15:07:47;5.30;;;2.30;;
11921;SDS011;6021;51.182;3.160;2023-08-01T15:10:17;7.13;;;2.30;;
11921;SDS011;6021;51.182;3.160;2023-08-01T15:12:45;5.17;;;2.17;;